Time;durP1;ratioP1;P1;durP2;ratioP2;P2;SDS_P1;SDS_P2;PMS_P1;PMS_P2;Temp;Humidity;BMP_temperature;BMP_pressure;BME280_temperature;BME280_humidity;BME280_pressure;Samples;Min_cycle;Max_cycle;Signal;HPM_P1;HPM_P2
2023/06/03 00:01:24;;;;;;;8.45;5.82;;;15.20;90.80;;;;;;5067796;28;20070;-74
2023/06/03 00:03:50;;;;;;;8.82;5.95;;;15.20;90.80;;;;;;5067428;28;20391;-74
2023/06/03 00:06:16;;;;;;;9.05;5.90;;;15.10;90.90;;;;;;5069861;28;20036;-74
2023/06/03 00:08:45;;;;;;;9.93;6.72;;;15.10;91.10;;;;;;5067945;28;20360;-74
2023/06/03 00:11:11;;;;;;;10.30;5.60;;;15.00;91.00;;;;;;5067092;28;20037;-74
2023/06/03 00:13:38;;;;;;;10.88;5.95;;;15.00;91.00;;;;;;5067250;28;20030;-74
2023/06/03 00:16:04;;;;;;;9.30;5.70;;;15.00;91.10;;;;;;5066668;28;20035;-75
2023/06/03 00:18:30;;;;;;;10.55;6.03;;;15.00;91.10;;;;;;5068816;28;20059;-74
2023/06/03 00:20:55;;;;;;;8.85;5.93;;;15.00;91.10;;;;;;5070401;28;20584;-73
2023/06/03 00:23:21;;;;;;;8.50;5.45;;;14.90;91.10;;;;;;5068439;28;20021;-73
2023/06/03 00:25:47;;;;;;;9.02;6.15;;;14.90;91.10;;;;;;5069003;28;20013;-73
2023/06/03 00:28:13;;;;;;;11.63;6.10;;;14.90;91.10;;;;;;5068025;28;20104;-74
2023/06/03 00:30:39;;;;;;;10.75;6.13;;;14.90;91.20;;;;;;5069678;28;20032;-74
2023/06/03 00:33:05;;;;;;;11.82;6.50;;;14.90;91.20;;;;;;5068929;28;20029;-72
2023/06/03 00:35:30;;;;;;;11.63;6.40;;;14.80;91.20;;;;;;5070068;28;21221;-74
2023/06/03 00:37:56;;;;;;;6.55;5.18;;;14.80;91.30;;;;;;5068734;28;20037;-75
2023/06/03 00:40:22;;;;;;;11.30;6.07;;;14.70;91.20;;;;;;5069570;28;20491;-74
2023/06/03 00:42:47;;;;;;;11.32;5.82;;;14.70;91.30;;;;;;5066826;28;20055;-73
2023/06/03 00:45:13;;;;;;;9.32;6.15;;;14.60;91.40;;;;;;5070198;28;20028;-73
2023/06/03 00:47:39;;;;;;;8.75;6.35;;;14.60;91.50;;;;;;5067889;28;20050;-73
2023/06/03 00:50:09;;;;;;;7.95;5.75;;;14.60;91.70;;;;;;5061578;28;20020;-73
2023/06/03 00:52:35;;;;;;;9.98;6.22;;;14.50;91.80;;;;;;5068497;28;20059;-73
2023/06/03 00:55:02;;;;;;;12.18;6.85;;;14.50;91.80;;;;;;5064696;28;20696;-73
2023/06/03 00:57:28;;;;;;;8.63;5.60;;;14.50;91.90;;;;;;5065141;28;20037;-73
2023/06/03 00:59:54;;;;;;;8.23;6.25;;;14.40;91.90;;;;;;5066043;28;20454;-73
2023/06/03 01:02:20;;;;;;;8.70;5.95;;;14.40;92.10;;;;;;5069092;28;20056;-73
2023/06/03 01:04:47;;;;;;;9.38;6.20;;;14.30;92.00;;;;;;5062977;28;20036;-73
2023/06/03 01:08:00;;;;;;;10.02;6.20;;;14.30;92.10;;;;;;5067556;28;20094;-74
2023/06/03 01:10:31;;;;;;;8.80;5.55;;;14.20;92.20;;;;;;5047746;28;20036;-73
2023/06/03 01:13:09;;;;;;;10.25;6.38;;;14.10;92.30;;;;;;5062891;28;20111;-72
2023/06/03 01:15:37;;;;;;;9.25;6.13;;;14.00;92.40;;;;;;5065937;28;20036;-73
2023/06/03 01:18:05;;;;;;;13.68;6.25;;;13.90;92.60;;;;;;5066624;28;20025;-73
2023/06/03 01:20:33;;;;;;;11.80;6.25;;;13.90;92.70;;;;;;5066285;28;20032;-73
2023/06/03 01:23:23;;;;;;;8.25;5.95;;;13.90;92.80;;;;;;5062227;28;20361;-73
2023/06/03 01:25:57;;;;;;;8.63;5.95;;;13.90;92.90;;;;;;5061698;28;20016;-74
2023/06/03 01:28:25;;;;;;;9.65;6.05;;;13.80;92.80;;;;;;5065043;28;20036;-74
2023/06/03 01:30:51;;;;;;;8.98;5.90;;;13.80;92.90;;;;;;5064088;28;20025;-74
2023/06/03 01:33:19;;;;;;;11.50;6.15;;;13.80;92.90;;;;;;5065136;28;20544;-73
2023/06/03 01:35:47;;;;;;;11.57;6.18;;;13.80;92.90;;;;;;5057772;28;20025;-74
2023/06/03 01:38:13;;;;;;;11.98;5.80;;;13.80;93.10;;;;;;5063985;28;20036;-75
2023/06/03 01:40:39;;;;;;;9.93;6.10;;;13.80;93.10;;;;;;5064354;28;20454;-74
2023/06/03 01:43:05;;;;;;;11.98;6.30;;;13.70;93.10;;;;;;5061138;28;20005;-74
2023/06/03 01:45:31;;;;;;;10.43;5.88;;;13.70;93.10;;;;;;5067387;28;20025;-74
2023/06/03 01:47:57;;;;;;;11.35;5.93;;;13.70;93.10;;;;;;5063519;28;20578;-73
2023/06/03 01:50:23;;;;;;;9.38;5.75;;;13.70;93.10;;;;;;5065128;28;20031;-73
2023/06/03 01:52:50;;;;;;;9.60;5.95;;;13.60;93.10;;;;;;5067965;28;20028;-73
2023/06/03 01:55:15;;;;;;;11.68;6.65;;;13.60;93.20;;;;;;5068451;28;20047;-73
2023/06/03 01:57:41;;;;;;;12.73;6.38;;;13.60;93.20;;;;;;5065714;28;20509;-73
2023/06/03 02:00:09;;;;;;;13.88;7.38;;;13.60;93.30;;;;;;5069246;28;20036;-73
2023/06/03 02:02:35;;;;;;;10.73;6.30;;;13.60;93.30;;;;;;5070886;28;20020;-74
2023/06/03 02:05:03;;;;;;;9.65;6.28;;;13.60;93.30;;;;;;5067984;28;20045;-73
2023/06/03 02:07:30;;;;;;;11.15;5.95;;;13.50;93.30;;;;;;5062213;28;20013;-73
2023/06/03 02:10:00;;;;;;;9.63;5.45;;;13.50;93.40;;;;;;5064974;28;20016;-73
2023/06/03 02:12:26;;;;;;;8.85;6.13;;;13.50;93.30;;;;;;5062597;28;20527;-73
2023/06/03 02:14:56;;;;;;;11.50;5.97;;;13.50;93.40;;;;;;5062812;28;20017;-74
2023/06/03 02:17:24;;;;;;;10.18;6.20;;;13.50;93.40;;;;;;5064856;28;20644;-73
2023/06/03 02:19:50;;;;;;;13.25;6.57;;;13.40;93.40;;;;;;5068267;28;21348;-73
2023/06/03 02:22:16;;;;;;;10.25;6.50;;;13.30;93.40;;;;;;5067042;28;20058;-73
2023/06/03 02:24:41;;;;;;;16.35;7.60;;;13.30;93.40;;;;;;5063341;28;20040;-73
2023/06/03 02:27:09;;;;;;;9.85;6.68;;;13.20;93.50;;;;;;5065630;28;20029;-73
2023/06/03 02:29:34;;;;;;;10.63;6.95;;;13.20;93.70;;;;;;5064307;28;20161;-73
2023/06/03 02:32:00;;;;;;;13.48;7.60;;;13.10;93.90;;;;;;5065951;28;20115;-73
2023/06/03 02:34:26;;;;;;;12.98;7.15;;;13.20;93.90;;;;;;5069611;28;21322;-73
2023/06/03 02:36:52;;;;;;;15.20;7.18;;;13.10;93.90;;;;;;5067405;28;20025;-73
2023/06/03 02:39:19;;;;;;;12.20;5.90;;;13.10;94.00;;;;;;5065941;28;20025;-73
2023/06/03 02:41:46;;;;;;;13.07;6.88;;;13.10;94.10;;;;;;5066573;28;20032;-72
2023/06/03 02:44:13;;;;;;;11.88;6.93;;;13.10;94.10;;;;;;5067333;28;20024;-72
2023/06/03 02:46:38;;;;;;;9.10;7.25;;;13.10;94.10;;;;;;5068272;28;20027;-71
2023/06/03 02:49:06;;;;;;;11.90;6.95;;;13.10;94.10;;;;;;5061531;28;20414;-72
2023/06/03 02:51:32;;;;;;;11.43;6.53;;;13.10;94.20;;;;;;5062882;28;20020;-73
2023/06/03 02:53:57;;;;;;;12.55;7.60;;;13.00;94.20;;;;;;5063378;28;20567;-74
2023/06/03 02:56:23;;;;;;;12.52;7.22;;;13.00;94.20;;;;;;5065214;28;20025;-73
2023/06/03 02:58:50;;;;;;;11.77;6.95;;;13.00;94.30;;;;;;5063729;28;20033;-72
2023/06/03 03:01:17;;;;;;;13.32;8.07;;;13.00;94.20;;;;;;5063473;28;20090;-72
2023/06/03 03:03:43;;;;;;;11.90;7.57;;;13.00;94.20;;;;;;5062572;28;20055;-74
2023/06/03 03:06:11;;;;;;;12.55;7.65;;;12.90;94.30;;;;;;5064500;28;20139;-73
2023/06/03 03:08:37;;;;;;;12.18;6.30;;;12.90;94.40;;;;;;5063318;28;20159;-72
2023/06/03 03:11:04;;;;;;;11.25;6.88;;;12.90;94.50;;;;;;5065873;28;20360;-72
2023/06/03 03:13:30;;;;;;;13.02;7.93;;;12.80;94.50;;;;;;5066076;28;20028;-72
2023/06/03 03:15:56;;;;;;;11.70;7.25;;;12.80;94.50;;;;;;5063270;28;20028;-72
2023/06/03 03:18:22;;;;;;;13.90;6.47;;;12.80;94.50;;;;;;5064582;28;20534;-73
2023/06/03 03:20:47;;;;;;;12.63;6.50;;;12.80;94.60;;;;;;5066378;28;20539;-72
2023/06/03 03:23:13;;;;;;;12.35;6.18;;;12.80;94.60;;;;;;5065651;28;20115;-72
2023/06/03 03:25:40;;;;;;;12.30;6.15;;;12.70;94.60;;;;;;5064957;28;20399;-73
2023/06/03 03:28:06;;;;;;;10.88;6.10;;;12.70;94.70;;;;;;5064919;28;20025;-74
2023/06/03 03:30:32;;;;;;;9.95;6.20;;;12.70;94.70;;;;;;5066090;28;20028;-72
2023/06/03 03:32:59;;;;;;;10.48;6.38;;;12.70;94.70;;;;;;5066688;28;20028;-72
2023/06/03 03:35:25;;;;;;;12.25;6.63;;;12.70;94.70;;;;;;5066791;28;20012;-72
2023/06/03 03:38:03;;;;;;;8.02;5.43;;;12.70;94.80;;;;;;5068760;28;20029;-72
2023/06/03 03:40:35;;;;;;;12.40;6.07;;;12.70;94.80;;;;;;5065724;28;20074;-73
2023/06/03 03:43:02;;;;;;;10.40;6.55;;;12.70;94.90;;;;;;5067472;28;20081;-73
2023/06/03 03:45:36;;;;;;;10.25;5.75;;;12.70;94.80;;;;;;5073245;28;20475;-71
2023/06/03 03:48:08;;;;;;;9.27;6.13;;;12.70;94.90;;;;;;5069958;28;20016;-73
2023/06/03 03:50:44;;;;;;;8.98;6.30;;;12.60;94.90;;;;;;5068885;28;20042;-73
2023/06/03 03:53:13;;;;;;;11.00;6.45;;;12.70;94.80;;;;;;5068556;28;20036;-73
2023/06/03 03:55:42;;;;;;;11.40;6.97;;;12.70;94.80;;;;;;5070766;28;20031;-73
2023/06/03 03:58:33;;;;;;;12.18;6.57;;;12.70;95.00;;;;;;5068918;28;20935;-73
2023/06/03 04:01:09;;;;;;;9.32;6.18;;;12.70;95.00;;;;;;5071622;28;20073;-71
2023/06/03 04:03:40;;;;;;;9.57;6.00;;;12.70;95.00;;;;;;5067721;28;20036;-72
2023/06/03 04:06:09;;;;;;;11.98;5.78;;;12.70;95.00;;;;;;5070540;28;20021;-74
2023/06/03 04:08:46;;;;;;;12.02;6.15;;;12.70;95.00;;;;;;5066659;28;20028;-75
2023/06/03 04:11:20;;;;;;;10.73;6.45;;;12.70;95.00;;;;;;5065559;28;20079;-75
2023/06/03 04:13:46;;;;;;;8.82;5.65;;;12.70;95.00;;;;;;5066572;28;20066;-74
2023/06/03 04:16:24;;;;;;;11.82;6.05;;;12.70;94.90;;;;;;5071296;28;20036;-74
2023/06/03 04:18:50;;;;;;;16.20;6.75;;;12.70;94.90;;;;;;5066619;28;20063;-74
2023/06/03 04:21:19;;;;;;;9.45;6.18;;;12.70;94.90;;;;;;5069202;28;20064;-74
2023/06/03 04:23:45;;;;;;;10.23;5.70;;;12.70;95.00;;;;;;5069834;28;20744;-73
2023/06/03 04:26:12;;;;;;;12.60;6.30;;;12.70;95.00;;;;;;5069077;28;20020;-74
2023/06/03 04:28:38;;;;;;;10.88;6.22;;;12.70;95.00;;;;;;5068341;28;20019;-74
2023/06/03 04:31:04;;;;;;;7.95;5.47;;;12.80;95.00;;;;;;5068251;28;20048;-74
2023/06/03 04:33:29;;;;;;;14.02;6.22;;;12.90;95.00;;;;;;5065629;28;20123;-73
2023/06/03 04:35:55;;;;;;;8.77;6.05;;;13.00;94.90;;;;;;5074552;28;20065;-73
2023/06/03 04:38:21;;;;;;;14.25;6.25;;;13.00;94.70;;;;;;5062674;28;20033;-75
2023/06/03 04:40:48;;;;;;;12.27;5.75;;;13.10;94.70;;;;;;5060122;28;20032;-73
2023/06/03 04:43:15;;;;;;;10.73;6.00;;;13.20;94.60;;;;;;5064818;28;20040;-74
2023/06/03 04:45:44;;;;;;;9.40;6.05;;;13.20;94.40;;;;;;5069254;28;20356;-73
2023/06/03 04:48:11;;;;;;;11.10;6.18;;;13.30;94.40;;;;;;5067366;28;20029;-72
2023/06/03 04:50:37;;;;;;;11.35;5.80;;;13.40;94.30;;;;;;5057890;28;20025;-73
2023/06/03 04:53:03;;;;;;;11.38;5.65;;;13.40;94.20;;;;;;5083891;28;20028;-73
2023/06/03 04:55:30;;;;;;;9.77;6.03;;;13.50;94.10;;;;;;5065373;28;20031;-73
2023/06/03 04:57:56;;;;;;;10.27;6.18;;;13.60;94.00;;;;;;5062066;28;20060;-73
2023/06/03 05:00:22;;;;;;;11.85;6.40;;;13.70;93.90;;;;;;5061490;28;20078;-72
2023/06/03 05:02:57;;;;;;;15.65;6.60;;;13.70;93.80;;;;;;5065968;28;20036;-73
2023/06/03 05:05:24;;;;;;;12.88;5.28;;;13.90;93.70;;;;;;5057621;28;20017;-73
2023/06/03 05:07:51;;;;;;;9.27;5.53;;;14.00;93.50;;;;;;5068064;28;20056;-72
2023/06/03 05:10:17;;;;;;;7.97;5.40;;;14.00;93.40;;;;;;5064608;28;20647;-72
2023/06/03 05:12:43;;;;;;;8.23;5.75;;;14.10;93.20;;;;;;5059871;28;20036;-72
2023/06/03 05:15:09;;;;;;;12.65;5.22;;;14.20;93.00;;;;;;5068973;28;20702;-71
2023/06/03 05:17:36;;;;;;;10.52;5.65;;;14.40;92.80;;;;;;5065041;28;20043;-71
2023/06/03 05:20:03;;;;;;;7.60;5.00;;;14.40;92.00;;;;;;5069094;28;20088;-72
2023/06/03 05:22:29;;;;;;;11.00;5.70;;;14.50;92.00;;;;;;5071924;28;20078;-71
2023/06/03 05:24:55;;;;;;;10.73;5.60;;;14.50;91.60;;;;;;5071814;28;20032;-72
2023/06/03 05:27:20;;;;;;;8.35;5.57;;;14.50;91.70;;;;;;5067086;28;20089;-71
2023/06/03 05:29:46;;;;;;;10.40;4.80;;;14.50;91.60;;;;;;5066410;28;20437;-73
2023/06/03 05:32:12;;;;;;;10.70;5.13;;;14.50;91.40;;;;;;5064400;28;20062;-72
2023/06/03 05:34:37;;;;;;;11.38;5.05;;;14.60;91.40;;;;;;5066811;28;20046;-73
2023/06/03 05:37:03;;;;;;;12.15;5.15;;;14.70;91.20;;;;;;5068223;28;20016;-72
2023/06/03 05:39:29;;;;;;;13.02;5.93;;;14.80;91.20;;;;;;5064015;28;20399;-72
2023/06/03 05:41:54;;;;;;;8.75;4.88;;;14.80;91.10;;;;;;5071428;28;20039;-73
2023/06/03 05:44:20;;;;;;;10.85;5.05;;;14.90;91.00;;;;;;5065312;28;20429;-72
2023/06/03 05:46:46;;;;;;;13.23;5.00;;;14.90;90.50;;;;;;5064270;28;20461;-73
2023/06/03 05:49:11;;;;;;;13.18;5.95;;;14.90;90.50;;;;;;5064076;28;20112;-75
2023/06/03 05:51:37;;;;;;;12.43;5.25;;;14.90;90.50;;;;;;5066476;28;20021;-72
2023/06/03 05:54:04;;;;;;;12.18;5.20;;;15.00;90.50;;;;;;5064962;28;20028;-72
2023/06/03 05:56:30;;;;;;;13.23;5.03;;;15.00;90.30;;;;;;5069767;28;20804;-72
2023/06/03 05:58:57;;;;;;;12.52;5.20;;;15.10;90.40;;;;;;5069667;28;20059;-71
2023/06/03 06:01:23;;;;;;;14.93;5.55;;;15.10;90.30;;;;;;5062388;28;20078;-72
2023/06/03 06:03:49;;;;;;;12.43;5.25;;;15.10;90.30;;;;;;5074145;28;20024;-70
2023/06/03 06:06:15;;;;;;;8.77;5.15;;;15.20;90.20;;;;;;5069544;28;20483;-69
2023/06/03 06:08:42;;;;;;;10.40;5.65;;;15.20;90.20;;;;;;5052824;28;20040;-71
2023/06/03 06:11:08;;;;;;;21.08;5.88;;;15.30;90.20;;;;;;5085467;28;20017;-73
2023/06/03 06:13:34;;;;;;;6.57;4.47;;;15.30;90.20;;;;;;5090599;28;20024;-72
2023/06/03 06:16:05;;;;;;;15.05;4.70;;;15.30;90.20;;;;;;5091633;28;20394;-72
2023/06/03 06:18:30;;;;;;;10.77;4.90;;;15.50;90.30;;;;;;5064652;28;20066;-72
2023/06/03 06:20:57;;;;;;;11.93;4.80;;;15.60;90.00;;;;;;5060224;28;20036;-72
2023/06/03 06:23:23;;;;;;;10.88;5.10;;;15.70;89.80;;;;;;5065801;28;20020;-72
2023/06/03 06:25:50;;;;;;;10.75;5.45;;;15.80;89.70;;;;;;5067582;28;20048;-72
2023/06/03 06:28:22;;;;;;;10.43;4.70;;;15.90;90.10;;;;;;5067070;28;20040;-72
2023/06/03 06:30:51;;;;;;;12.60;5.55;;;16.00;89.30;;;;;;5063413;28;20439;-72
2023/06/03 06:33:17;;;;;;;10.80;5.53;;;16.00;89.20;;;;;;5063630;28;20147;-72
2023/06/03 06:35:44;;;;;;;11.00;4.85;;;16.00;89.00;;;;;;5068026;28;20107;-74
2023/06/03 06:38:11;;;;;;;10.65;5.57;;;16.00;89.40;;;;;;5057243;28;20861;-73
2023/06/03 06:40:40;;;;;;;13.68;5.80;;;16.00;89.70;;;;;;5058911;28;20029;-75
2023/06/03 06:43:12;;;;;;;10.50;5.20;;;16.00;90.00;;;;;;5061192;28;20035;-74
2023/06/03 06:45:37;;;;;;;10.60;5.43;;;16.00;90.20;;;;;;5061080;28;20021;-75
2023/06/03 06:48:10;;;;;;;13.82;5.75;;;16.00;90.20;;;;;;5064221;28;20029;-76
2023/06/03 06:50:45;;;;;;;11.73;4.97;;;16.10;90.20;;;;;;5061268;28;20533;-73
2023/06/03 06:53:11;;;;;;;10.77;5.82;;;16.10;90.20;;;;;;5065157;28;20197;-73
2023/06/03 06:55:53;;;;;;;11.77;5.55;;;16.10;90.40;;;;;;5064714;28;20052;-74
2023/06/03 06:58:19;;;;;;;12.95;5.63;;;16.10;90.40;;;;;;5065428;28;20051;-73
2023/06/03 07:00:46;;;;;;;11.82;5.70;;;16.10;90.40;;;;;;5065986;28;20057;-73
2023/06/03 07:03:14;;;;;;;14.90;6.15;;;16.10;90.50;;;;;;5062464;28;20032;-73
2023/06/03 07:05:40;;;;;;;14.50;5.47;;;16.10;90.50;;;;;;5059666;28;20037;-72
2023/06/03 07:08:06;;;;;;;12.18;5.70;;;16.10;90.50;;;;;;5062099;28;20039;-73
2023/06/03 07:10:32;;;;;;;12.73;4.93;;;16.10;90.60;;;;;;5063694;28;20032;-74
2023/06/03 07:12:58;;;;;;;12.07;5.13;;;16.20;90.50;;;;;;5065143;28;20033;-72
2023/06/03 07:15:24;;;;;;;8.95;4.80;;;16.20;90.30;;;;;;5064913;28;20043;-73
2023/06/03 07:17:55;;;;;;;10.93;5.03;;;16.20;90.20;;;;;;5065251;28;20028;-74
2023/06/03 07:20:36;;;;;;;10.00;5.30;;;16.30;90.30;;;;;;5068464;28;20143;-73
2023/06/03 07:23:11;;;;;;;12.77;4.88;;;16.30;90.10;;;;;;5072460;28;20032;-73
2023/06/03 07:25:49;;;;;;;11.52;4.55;;;16.30;90.00;;;;;;5063710;28;20025;-73
2023/06/03 07:28:20;;;;;;;10.18;5.18;;;16.40;90.00;;;;;;5064297;28;20544;-73
2023/06/03 07:30:47;;;;;;;14.38;5.13;;;16.40;89.70;;;;;;5066800;28;20056;-74
2023/06/03 07:33:29;;;;;;;11.18;5.15;;;16.50;90.00;;;;;;5066010;28;20028;-74
2023/06/03 07:36:01;;;;;;;17.20;5.07;;;16.50;89.60;;;;;;5070986;28;20028;-75
2023/06/03 07:38:38;;;;;;;11.48;4.90;;;16.60;89.60;;;;;;5070042;28;20028;-73
2023/06/03 07:41:09;;;;;;;12.68;5.05;;;16.60;89.50;;;;;;5068645;28;20106;-76
2023/06/03 07:43:38;;;;;;;12.27;5.07;;;16.70;89.40;;;;;;5067515;28;20055;-74
2023/06/03 07:46:08;;;;;;;9.95;5.30;;;16.70;89.00;;;;;;5071454;28;20025;-73
2023/06/03 07:48:37;;;;;;;17.52;5.15;;;16.80;89.10;;;;;;5062520;28;20029;-74
2023/06/03 07:51:06;;;;;;;12.32;4.80;;;16.90;89.10;;;;;;5066634;28;20045;-75
2023/06/03 07:53:36;;;;;;;8.63;4.80;;;17.00;88.70;;;;;;5066756;28;20042;-74
2023/06/03 07:56:08;;;;;;;14.40;5.18;;;17.00;88.70;;;;;;5066544;28;20031;-75
2023/06/03 07:58:36;;;;;;;12.82;4.90;;;17.20;88.60;;;;;;5070911;28;20037;-75
2023/06/03 08:01:03;;;;;;;11.40;5.05;;;17.20;88.50;;;;;;5066906;28;20044;-75
2023/06/03 08:03:30;;;;;;;11.98;5.40;;;17.20;88.30;;;;;;5070526;28;20054;-72
2023/06/03 08:05:56;;;;;;;12.07;4.97;;;17.30;88.40;;;;;;5066214;28;20051;-73
2023/06/03 08:08:30;;;;;;;16.63;5.60;;;17.30;88.30;;;;;;5070380;28;20101;-74
2023/06/03 08:10:55;;;;;;;;;;;17.50;88.10;;;;;;5068292;28;20052;-74
2023/06/03 08:13:21;;;;;;;14.52;5.43;;;17.70;87.50;;;;;;5067783;28;19954;-74
2023/06/03 08:15:47;;;;;;;12.35;5.18;;;17.70;87.30;;;;;;5065469;28;20051;-74
2023/06/03 08:18:39;;;;;;;12.48;5.53;;;17.80;87.40;;;;;;5069485;28;20020;-73
2023/06/03 08:21:05;;;;;;;19.88;5.82;;;17.80;87.40;;;;;;5057786;28;20037;-73
2023/06/03 08:23:30;;;;;;;13.52;5.20;;;17.90;87.00;;;;;;5068241;28;20115;-74
2023/06/03 08:25:59;;;;;;;10.60;4.85;;;18.00;87.00;;;;;;5065882;28;20021;-73
2023/06/03 08:28:25;;;;;;;8.98;4.82;;;18.00;86.70;;;;;;5067762;28;20533;-74
2023/06/03 08:30:51;;;;;;;11.05;5.38;;;18.10;86.90;;;;;;5069296;28;20021;-74
2023/06/03 08:33:17;;;;;;;14.55;5.13;;;18.20;87.00;;;;;;5071007;28;20024;-74
2023/06/03 08:35:43;;;;;;;10.85;4.75;;;18.20;86.70;;;;;;5069392;28;20422;-73
2023/06/03 08:38:09;;;;;;;10.30;4.90;;;18.30;86.80;;;;;;5067196;28;20028;-73
2023/06/03 08:40:40;;;;;;;15.35;5.75;;;18.30;86.40;;;;;;5066175;28;20165;-73
2023/06/03 08:43:06;;;;;;;10.43;4.95;;;18.40;86.50;;;;;;5069300;28;20040;-74
2023/06/03 08:45:48;;;;;;;11.80;5.88;;;18.50;86.30;;;;;;5065858;28;20527;-73
2023/06/03 08:48:23;;;;;;;13.55;6.25;;;18.60;86.10;;;;;;5067126;28;20098;-72
2023/06/03 08:50:50;;;;;;;13.80;5.57;;;18.70;86.00;;;;;;5066593;28;20363;-74
2023/06/03 08:53:15;;;;;;;10.43;4.63;;;18.70;85.90;;;;;;5069192;28;20033;-74
2023/06/03 08:55:43;;;;;;;8.63;5.03;;;18.90;85.70;;;;;;5066731;28;20509;-72
2023/06/03 08:58:25;;;;;;;13.48;5.28;;;19.00;85.50;;;;;;5069507;28;20021;-72
2023/06/03 09:01:01;;;;;;;10.48;5.50;;;19.00;85.10;;;;;;5069559;28;20101;-75
2023/06/03 09:03:28;;;;;;;12.30;5.03;;;19.20;85.00;;;;;;5067298;28;20246;-73
2023/06/03 09:05:54;;;;;;;12.93;5.75;;;19.20;84.50;;;;;;5069281;28;20074;-73
2023/06/03 09:08:22;;;;;;;9.00;5.18;;;19.30;84.40;;;;;;5068120;28;20473;-75
2023/06/03 09:10:48;;;;;;;11.43;4.65;;;19.40;84.30;;;;;;5068633;28;20021;-74
2023/06/03 09:13:16;;;;;;;10.85;4.95;;;19.50;84.40;;;;;;5068607;28;20062;-75
2023/06/03 09:15:43;;;;;;;11.48;4.78;;;19.50;84.30;;;;;;5070473;28;20056;-74
2023/06/03 09:18:09;;;;;;;15.10;4.70;;;19.60;83.70;;;;;;5071973;28;20021;-73
2023/06/03 09:20:35;;;;;;;9.20;4.38;;;19.70;83.50;;;;;;5069252;28;20112;-73
2023/06/03 09:23:02;;;;;;;10.32;4.90;;;19.80;83.10;;;;;;5065243;28;20017;-73
2023/06/03 09:25:27;;;;;;;12.18;4.70;;;19.80;82.70;;;;;;5072611;28;20035;-74
2023/06/03 09:27:53;;;;;;;10.18;5.03;;;19.80;82.80;;;;;;5068912;28;20103;-73
2023/06/03 09:30:19;;;;;;;9.57;5.10;;;19.90;82.90;;;;;;5067344;28;20063;-73
2023/06/03 09:32:45;;;;;;;11.48;4.60;;;20.00;82.90;;;;;;5069998;28;20479;-73
2023/06/03 09:35:11;;;;;;;10.85;5.20;;;20.00;82.50;;;;;;5067011;28;20032;-73
2023/06/03 09:37:37;;;;;;;9.80;5.30;;;20.10;82.90;;;;;;5067421;28;20031;-74
2023/06/03 09:40:04;;;;;;;9.05;5.22;;;20.30;81.80;;;;;;5067145;28;20020;-72
2023/06/03 09:42:45;;;;;;;11.05;4.70;;;20.30;81.50;;;;;;5068811;28;20384;-73
2023/06/03 09:45:30;;;;;;;10.57;4.60;;;20.30;81.50;;;;;;5064541;28;20086;-73
2023/06/03 09:47:57;;;;;;;7.07;4.28;;;20.30;81.50;;;;;;5067478;28;20020;-73
2023/06/03 09:50:24;;;;;;;11.82;5.30;;;20.50;81.60;;;;;;5064640;28;20052;-73
2023/06/03 09:52:50;;;;;;;12.90;4.95;;;20.60;81.20;;;;;;5069907;28;20066;-73
2023/06/03 09:55:17;;;;;;;9.93;4.10;;;20.60;81.00;;;;;;5067036;28;20059;-73
2023/06/03 09:58:09;;;;;;;9.63;4.75;;;20.60;80.50;;;;;;5069641;28;20016;-73
2023/06/03 10:00:51;;;;;;;9.93;5.10;;;20.70;80.60;;;;;;5062522;28;21259;-73
2023/06/03 10:03:18;;;;;;;7.63;4.97;;;20.70;80.60;;;;;;5068454;28;20067;-73
2023/06/03 10:05:44;;;;;;;9.00;5.15;;;20.80;80.30;;;;;;5069532;28;20013;-74
2023/06/03 10:08:10;;;;;;;10.10;5.07;;;20.80;80.10;;;;;;5061819;28;20036;-74
2023/06/03 10:10:57;;;;;;;9.07;5.00;;;20.90;80.10;;;;;;5063092;28;20060;-73
2023/06/03 10:13:23;;;;;;;10.68;5.32;;;21.00;79.80;;;;;;5060213;28;20048;-73
2023/06/03 10:15:52;;;;;;;8.38;5.18;;;21.00;79.90;;;;;;5066891;28;20024;-73
2023/06/03 10:18:33;;;;;;;8.13;5.28;;;21.00;79.90;;;;;;5067160;28;20141;-72
2023/06/03 10:21:04;;;;;;;7.97;5.60;;;21.10;79.70;;;;;;5065932;28;20089;-73
2023/06/03 10:23:30;;;;;;;12.40;5.22;;;21.20;79.40;;;;;;5066703;28;20029;-73
2023/06/03 10:25:56;;;;;;;9.73;5.10;;;21.30;79.50;;;;;;5068221;28;20070;-73
2023/06/03 10:28:25;;;;;;;13.20;5.13;;;21.30;79.40;;;;;;5062941;28;20028;-74
2023/06/03 10:30:51;;;;;;;12.00;5.90;;;21.40;79.20;;;;;;5066587;28;20492;-72
2023/06/03 10:33:19;;;;;;;13.10;5.57;;;21.40;79.30;;;;;;5064746;28;20031;-73
2023/06/03 10:35:46;;;;;;;10.27;4.70;;;21.50;79.30;;;;;;5052321;28;20048;-74
2023/06/03 10:38:14;;;;;;;10.23;4.95;;;21.50;79.20;;;;;;5066229;28;20498;-74
2023/06/03 10:40:40;;;;;;;10.07;5.32;;;21.60;79.10;;;;;;5066766;28;20033;-74
2023/06/03 10:43:09;;;;;;;11.32;4.75;;;21.60;78.80;;;;;;5066589;28;20463;-74
2023/06/03 10:45:35;;;;;;;8.82;4.80;;;21.60;78.70;;;;;;5067083;28;20129;-73
2023/06/03 10:48:05;;;;;;;8.45;5.30;;;21.60;79.00;;;;;;5067143;28;20637;-75
2023/06/03 10:50:56;;;;;;;9.93;5.38;;;21.70;79.10;;;;;;5065798;28;20036;-74
2023/06/03 10:53:46;;;;;;;8.05;5.35;;;21.80;78.90;;;;;;5066393;28;20035;-72
2023/06/03 10:56:34;;;;;;;10.10;5.93;;;21.90;78.70;;;;;;5067636;28;20470;-72
2023/06/03 10:59:07;;;;;;;11.07;5.18;;;21.90;78.10;;;;;;5064407;28;20028;-73
2023/06/03 11:01:57;;;;;;;8.02;5.20;;;22.00;78.20;;;;;;5080708;28;20557;-73
2023/06/03 11:04:22;;;;;;;9.88;5.43;;;22.10;77.80;;;;;;5065495;28;20024;-74
2023/06/03 11:06:48;;;;;;;16.70;5.65;;;22.20;77.70;;;;;;5068046;28;20032;-73
2023/06/03 11:09:17;;;;;;;12.00;5.30;;;22.30;77.60;;;;;;5066888;28;20625;-74
2023/06/03 11:11:44;;;;;;;8.88;5.60;;;22.30;77.50;;;;;;5062175;28;20027;-73
2023/06/03 11:14:10;;;;;;;10.38;5.63;;;22.30;77.20;;;;;;5067975;28;20021;-74
2023/06/03 11:16:57;;;;;;;11.57;5.15;;;22.30;77.20;;;;;;5068495;28;20428;-74
2023/06/03 11:19:30;;;;;;;11.18;5.30;;;22.40;77.20;;;;;;5063072;28;20028;-73
2023/06/03 11:21:57;;;;;;;7.18;5.35;;;22.50;77.30;;;;;;5063593;28;20017;-72
2023/06/03 11:24:37;;;;;;;11.63;5.72;;;22.60;76.80;;;;;;5065058;28;20399;-72
2023/06/03 11:27:15;;;;;;;7.88;5.10;;;22.60;75.70;;;;;;5080060;28;20016;-75
2023/06/03 11:29:46;;;;;;;8.68;5.15;;;22.70;75.80;;;;;;5060307;28;20115;-72
2023/06/03 11:32:12;;;;;;;13.63;5.43;;;22.70;76.00;;;;;;5059801;28;20032;-73
2023/06/03 11:34:38;;;;;;;10.45;5.13;;;22.70;76.10;;;;;;5063461;28;20024;-72
2023/06/03 11:37:04;;;;;;;10.02;5.35;;;22.80;76.40;;;;;;5056937;28;20100;-75
2023/06/03 11:40:05;;;;;;;9.32;5.00;;;22.80;75.90;;;;;;5062542;28;20029;-73
2023/06/03 11:42:49;;;;;;;10.80;5.60;;;22.80;75.70;;;;;;5058065;28;20024;-73
2023/06/03 11:45:21;;;;;;;10.50;5.70;;;22.80;75.30;;;;;;5058843;28;20494;-74
2023/06/03 11:47:51;;;;;;;10.57;5.72;;;22.90;74.70;;;;;;5062480;28;20020;-73
2023/06/03 11:50:17;;;;;;;12.25;5.85;;;22.90;74.00;;;;;;5061087;28;20044;-74
2023/06/03 11:52:43;;;;;;;7.72;5.22;;;22.90;73.90;;;;;;5059551;28;20359;-74
2023/06/03 11:55:09;;;;;;;9.00;5.38;;;22.80;73.70;;;;;;5065735;28;20024;-75
2023/06/03 11:57:34;;;;;;;15.07;6.30;;;22.90;73.70;;;;;;5066826;28;20055;-74
2023/06/03 12:00:07;;;;;;;11.50;5.25;;;22.90;73.90;;;;;;5064693;28;20504;-75
2023/06/03 12:02:46;;;;;;;9.13;5.45;;;22.90;74.10;;;;;;5052134;28;20025;-75
2023/06/03 12:05:13;;;;;;;8.55;5.38;;;23.00;73.70;;;;;;5073206;28;20028;-75
2023/06/03 12:07:39;;;;;;;8.98;4.78;;;22.90;73.80;;;;;;5067157;28;20384;-74
2023/06/03 12:10:05;;;;;;;7.32;4.85;;;23.00;74.10;;;;;;5071178;28;20434;-73
2023/06/03 12:12:31;;;;;;;12.20;5.45;;;23.10;74.00;;;;;;5066302;28;20021;-74
2023/06/03 12:15:07;;;;;;;10.73;5.72;;;23.10;73.70;;;;;;5064579;28;20070;-75
2023/06/03 12:17:33;;;;;;;10.07;6.20;;;23.20;72.50;;;;;;5057031;28;20584;-75
2023/06/03 12:20:04;;;;;;;8.68;5.47;;;23.20;71.80;;;;;;5066618;28;20492;-74
2023/06/03 12:22:30;;;;;;;10.15;5.43;;;23.20;71.70;;;;;;5065664;28;20032;-73
2023/06/03 12:24:55;;;;;;;7.55;5.03;;;23.20;72.00;;;;;;5064122;28;20043;-73
2023/06/03 12:27:26;;;;;;;8.90;5.47;;;23.30;72.20;;;;;;5070630;28;20609;-73
2023/06/03 12:29:55;;;;;;;10.70;5.50;;;23.40;71.50;;;;;;5065873;28;20028;-72
2023/06/03 12:32:22;;;;;;;8.18;5.13;;;23.50;70.80;;;;;;5062590;28;20078;-71
2023/06/03 12:34:48;;;;;;;12.15;5.05;;;23.50;70.40;;;;;;5065399;28;20028;-71
2023/06/03 12:37:30;;;;;;;11.55;4.85;;;23.50;70.20;;;;;;5069124;28;20025;-72
2023/06/03 12:39:58;;;;;;;8.68;5.07;;;23.60;69.80;;;;;;5065139;28;20436;-72
2023/06/03 12:42:38;;;;;;;8.10;5.00;;;23.50;69.90;;;;;;5062843;28;20017;-72
2023/06/03 12:45:06;;;;;;;7.85;5.35;;;23.70;70.40;;;;;;5066046;28;20028;-72
2023/06/03 12:47:45;;;;;;;7.05;4.72;;;23.80;70.50;;;;;;5066377;28;20048;-73
2023/06/03 12:50:13;;;;;;;7.05;4.72;;;23.90;70.00;;;;;;5067043;28;20428;-73